Anchorville, Michigan
Current Conditions -  °F | °C
As of 3:58 AM on Saturday 22 Nov 2014 (Local Time) from KMTC Reporting Station
Overcast Overcast  
Wind Chill: 18°   Ceiling: 4200
Heat Index: 27°   Visibility: 10mi
Dew Point: 16°   Wind: 9mph
Humidity: 64%   Direction: 200°SSW
Pressure: 30.2"   Gusts: NA
Location:  42.69°N, 82.7°W
Report Text: KMTC 220858Z AUTO 20008KT 10SM OVC042 M03/M09 A3020 RMK AO2 SLP239 T10291088 57028
Loading
Personal Weather Stations






























Interactive Weather Map New forecast layout! Learn more

10-Day Weather Forecast

Advertisements
Track Severe Weather on mobile